createdAt,value
2023-04-25T00:08:56.284Z,93.5
2023-04-25T00:18:56.775Z,93.7
2023-04-25T00:28:56.446Z,94.5
2023-04-25T00:38:56.358Z,95.7
2023-04-25T00:48:56.060Z,96.3
2023-04-25T00:58:56.109Z,94.9
2023-04-25T01:08:56.095Z,92.7
2023-04-25T01:18:56.150Z,92.5
2023-04-25T01:28:56.038Z,93.6
2023-04-25T01:38:56.068Z,92.7
2023-04-25T01:48:56.668Z,93.2
2023-04-25T01:58:56.031Z,95.7
2023-04-25T02:08:56.370Z,96.4
2023-04-25T02:18:56.510Z,96.0
2023-04-25T02:28:56.447Z,96.0
2023-04-25T02:38:56.204Z,94.4
2023-04-25T02:48:57.500Z,94.1
2023-04-25T02:58:56.238Z,94.7
2023-04-25T03:08:56.162Z,95.6
2023-04-25T03:18:56.309Z,96.7
2023-04-25T03:28:56.171Z,97.4
2023-04-25T03:38:56.327Z,97.4
2023-04-25T03:48:56.201Z,97.4
2023-04-25T03:58:56.194Z,97.4
2023-04-25T04:08:56.228Z,96.9
2023-04-25T04:18:56.210Z,96.2
2023-04-25T04:28:56.293Z,95.3
2023-04-25T04:38:56.236Z,95.2
2023-04-25T04:48:56.302Z,95.4
2023-04-25T04:58:56.188Z,94.7
2023-04-25T05:08:56.585Z,95.1
2023-04-25T05:18:56.373Z,94.7
2023-04-25T05:28:56.075Z,93.0
2023-04-25T05:38:56.241Z,93.2
2023-04-25T05:48:56.071Z,92.1
2023-04-25T05:58:57.329Z,92.3
2023-04-25T06:08:57.333Z,91.5
2023-04-25T06:18:56.706Z,92.3
2023-04-25T06:28:56.964Z,91.4
2023-04-25T06:38:56.983Z,90.8
2023-04-25T06:48:56.875Z,90.2
2023-04-25T06:58:57.148Z,87.2
2023-04-25T07:08:57.479Z,86.3
2023-04-25T07:18:57.079Z,82.9
2023-04-25T07:28:56.972Z,83.2
2023-04-25T07:38:56.909Z,80.4
2023-04-25T07:48:56.898Z,79.0
2023-04-25T07:58:56.716Z,75.3
2023-04-25T08:08:57.096Z,83.5
2023-04-25T08:18:57.041Z,91.2
2023-04-25T08:28:56.765Z,90.9
2023-04-25T08:38:57.359Z,90.5
2023-04-25T08:48:58.030Z,89.1
2023-04-25T08:58:57.563Z,83.6
2023-04-25T09:08:56.885Z,75.8
2023-04-25T09:18:56.871Z,73.7
2023-04-25T09:28:56.912Z,87.2
2023-04-25T09:38:57.488Z,85.5
2023-04-25T09:48:57.282Z,88.6
2023-04-25T09:58:56.977Z,77.6
2023-04-25T10:08:56.966Z,75.6
2023-04-25T10:18:56.813Z,78.1
2023-04-25T10:28:57.319Z,65.8
2023-04-25T10:38:57.255Z,71.1
2023-04-25T10:48:56.931Z,66.8
2023-04-25T10:58:57.015Z,72.6
2023-04-25T11:08:56.820Z,69.9
2023-04-25T11:18:56.758Z,65.0
2023-04-25T11:28:56.853Z,59.8
2023-04-25T11:38:57.413Z,59.5
2023-04-25T11:48:56.755Z,60.5
2023-04-25T11:58:56.924Z,58.8
2023-04-25T12:08:57.010Z,57.4
2023-04-25T12:18:56.864Z,62.1
2023-04-25T12:28:56.755Z,55.0
2023-04-25T12:38:57.079Z,53.2
2023-04-25T12:49:00.661Z,61.5
2023-04-25T12:58:56.972Z,61.6
2023-04-25T13:08:56.819Z,60.3
2023-04-25T13:18:57.363Z,60.9
2023-04-25T13:28:57.117Z,61.6
2023-04-25T13:38:57.784Z,59.3
2023-04-25T13:49:03.010Z,59.6
2023-04-25T13:58:56.894Z,58.9
2023-04-25T14:08:57.807Z,55.9
2023-04-25T14:18:57.629Z,58.0
2023-04-25T14:28:56.797Z,56.2
2023-04-25T14:38:58.202Z,59.7
2023-04-25T14:48:57.184Z,59.5
2023-04-25T14:58:56.842Z,57.2
2023-04-25T15:08:56.910Z,56.7
2023-04-25T15:18:57.434Z,55.3
2023-04-25T15:28:56.860Z,55.8
2023-04-25T15:38:56.820Z,53.5
2023-04-25T15:48:57.123Z,54.0
2023-04-25T15:58:56.859Z,57.0
2023-04-25T16:08:57.242Z,60.4
2023-04-25T16:18:56.817Z,61.2
2023-04-25T16:28:56.912Z,61.3
2023-04-25T16:38:57.198Z,61.2
2023-04-25T16:48:56.832Z,63.6
2023-04-25T16:58:56.764Z,65.1
2023-04-25T17:08:57.133Z,65.5
2023-04-25T17:18:57.247Z,68.3
2023-04-25T17:28:56.857Z,68.2
2023-04-25T17:38:56.989Z,70.0
2023-04-25T17:48:57.308Z,70.0
2023-04-25T17:58:56.851Z,68.5
2023-04-25T18:08:56.889Z,66.9
2023-04-25T18:18:57.336Z,67.3
2023-04-25T18:28:56.993Z,67.9
2023-04-25T18:38:59.517Z,67.8
2023-04-25T18:48:56.892Z,68.3
2023-04-25T18:58:57.164Z,66.8
2023-04-25T19:08:56.847Z,67.3
2023-04-25T19:18:57.385Z,68.1
2023-04-25T19:28:57.028Z,76.4
2023-04-25T19:38:56.861Z,79.8
2023-04-25T19:48:57.056Z,80.9
2023-04-25T19:58:57.002Z,80.9
2023-04-25T20:08:57.186Z,82.2
2023-04-25T20:18:57.136Z,83.6
2023-04-25T20:28:59.414Z,84.0
2023-04-25T20:38:57.255Z,84.3
2023-04-25T20:48:57.001Z,82.3
2023-04-25T20:58:57.290Z,82.3
2023-04-25T21:08:57.074Z,82.7
2023-04-25T21:18:57.213Z,81.4
2023-04-25T21:28:57.131Z,82.5
2023-04-25T21:38:57.113Z,83.8
2023-04-25T21:48:57.164Z,84.2
2023-04-25T21:58:56.871Z,83.3
2023-04-25T22:08:57.726Z,85.0
2023-04-25T22:18:57.134Z,86.9
2023-04-25T22:28:56.930Z,88.6
2023-04-25T22:38:57.028Z,88.0
2023-04-25T22:48:57.953Z,85.3
2023-04-25T22:58:56.910Z,87.8
2023-04-25T23:08:57.577Z,89.8
2023-04-25T23:18:56.929Z,88.4
2023-04-25T23:28:57.422Z,90.3
2023-04-25T23:38:58.113Z,91.1
2023-04-25T23:48:57.565Z,91.2
2023-04-25T23:58:57.809Z,92.1
